Time;durP1;ratioP1;P1;durP2;ratioP2;P2;SDS_P1;SDS_P2;PMS_P1;PMS_P2;Temp;Humidity;BMP_temperature;BMP_pressure;BME280_temperature;BME280_humidity;BME280_pressure;Samples;Min_cycle;Max_cycle;Signal;HPM_P1;HPM_P2
2022/12/21 00:01:12;;;;;;;76.63;23.92;;;;;;;1.40;100.00;99319.84;5018572;28;20427;-69
2022/12/21 00:03:39;;;;;;;64.35;22.98;;;;;;;1.74;100.00;99312.44;5018354;28;20058;-73
2022/12/21 00:06:06;;;;;;;61.53;22.25;;;;;;;1.31;100.00;99337.06;5018698;28;20050;-72
2022/12/21 00:08:36;;;;;;;52.78;21.77;;;;;;;1.20;100.00;99322.13;5018436;28;20107;-74
2022/12/21 00:11:02;;;;;;;63.28;22.70;;;;;;;1.37;100.00;99298.84;5018511;28;20426;-65
2022/12/21 00:13:30;;;;;;;73.78;24.10;;;;;;;1.05;100.00;99274.63;5018238;28;20053;-69
2022/12/21 00:15:57;;;;;;;62.95;22.92;;;;;;;0.81;100.00;99253.22;5018532;28;20115;-73
2022/12/21 00:18:23;;;;;;;65.00;23.10;;;;;;;0.81;100.00;99224.31;5018270;28;20434;-72
2022/12/21 00:20:57;;;;;;;59.58;22.00;;;;;;;0.93;100.00;99197.63;5017392;28;20061;-69
2022/12/21 00:23:23;;;;;;;70.47;23.85;;;;;;;0.89;100.00;99185.81;5018083;28;20057;-74
2022/12/21 00:25:50;;;;;;;66.25;22.65;;;;;;;1.21;100.00;99176.00;5018635;28;20057;-64
2022/12/21 00:28:16;;;;;;;70.25;23.10;;;;;;;1.41;100.00;99182.88;5018123;28;20045;-73
2022/12/21 00:30:42;;;;;;;67.78;23.27;;;;;;;1.27;100.00;99192.91;5018314;28;20050;-70
2022/12/21 00:33:09;;;;;;;70.10;23.83;;;;;;;1.35;100.00;99203.00;5018413;28;20389;-69
2022/12/21 00:35:35;;;;;;;72.35;23.02;;;;;;;1.30;100.00;99211.19;5018292;28;20057;-69
2022/12/21 00:38:01;;;;;;;65.85;24.15;;;;;;;1.45;100.00;99201.97;5018066;28;20053;-69
2022/12/21 00:40:27;;;;;;;70.22;22.83;;;;;;;1.25;100.00;99211.31;5018009;28;20056;-69
2022/12/21 00:42:54;;;;;;;63.58;22.45;;;;;;;1.18;100.00;99214.41;5018267;28;20293;-69
2022/12/21 00:45:20;;;;;;;70.90;23.08;;;;;;;0.85;100.00;99195.63;5018000;28;20085;-74
2022/12/21 00:47:47;;;;;;;58.63;22.38;;;;;;;0.86;100.00;99178.31;5018359;28;20119;-64
2022/12/21 00:50:14;;;;;;;68.68;22.90;;;;;;;0.88;100.00;99165.34;5017984;28;20054;-65
2022/12/21 00:52:40;;;;;;;62.10;22.98;;;;;;;1.34;100.00;99142.78;5018386;28;20328;-73
2022/12/21 00:55:07;;;;;;;65.50;23.00;;;;;;;1.05;100.00;99134.22;5017701;28;20485;-65
2022/12/21 00:57:33;;;;;;;67.45;24.08;;;;;;;1.18;100.00;99133.41;5017711;28;20050;-65
2022/12/21 01:00:02;;;;;;;80.50;23.92;;;;;;;1.35;100.00;99143.56;5017975;28;20053;-63
2022/12/21 01:02:29;;;;;;;67.80;22.67;;;;;;;1.15;100.00;99144.81;5017804;28;20085;-73
2022/12/21 01:04:55;;;;;;;70.03;24.08;;;;;;;1.00;100.00;99145.13;5017641;28;20054;-69
2022/12/21 01:07:22;;;;;;;65.88;23.10;;;;;;;1.00;100.00;99129.75;5017708;28;20398;-72
2022/12/21 01:09:48;;;;;;;73.28;24.35;;;;;;;1.12;100.00;99115.72;5017945;28;20058;-66
2022/12/21 01:12:14;;;;;;;73.05;24.80;;;;;;;1.00;100.00;99105.47;5017620;28;20096;-72
2022/12/21 01:14:40;;;;;;;66.30;24.05;;;;;;;1.10;100.00;99109.81;5017609;28;20145;-66
2022/12/21 01:17:07;;;;;;;59.45;23.23;;;;;;;1.59;100.00;99108.97;5017682;28;20050;-68
2022/12/21 01:19:33;;;;;;;79.13;24.70;;;;;;;1.12;100.00;99132.72;5017700;28;20412;-72
2022/12/21 01:22:00;;;;;;;70.13;26.15;;;;;;;1.07;100.00;99121.25;5017174;28;20406;-63
2022/12/21 01:24:26;;;;;;;77.82;24.10;;;;;;;1.11;100.00;99119.53;5017561;28;20054;-64
2022/12/21 01:26:52;;;;;;;71.90;23.20;;;;;;;1.13;100.00;99125.41;5017329;28;20049;-72
2022/12/21 01:29:19;;;;;;;79.72;26.05;;;;;;;1.28;100.00;99127.78;5017371;28;20214;-63
2022/12/21 01:31:46;;;;;;;75.05;25.13;;;;;;;0.85;100.00;99128.16;5016985;28;20065;-72
2022/12/21 01:34:13;;;;;;;72.25;23.58;;;;;;;1.06;100.00;99120.41;5016844;28;20050;-66
2022/12/21 01:36:39;;;;;;;72.78;24.17;;;;;;;0.95;100.00;99110.94;5017362;28;20121;-74
2022/12/21 01:39:05;;;;;;;76.88;24.00;;;;;;;1.49;100.00;99103.00;5017210;28;20490;-64
2022/12/21 01:41:31;;;;;;;71.82;23.30;;;;;;;1.67;100.00;99117.44;5017641;28;20060;-73
2022/12/21 01:43:59;;;;;;;87.90;24.95;;;;;;;1.04;100.00;99132.66;5017254;28;20054;-64
2022/12/21 01:46:29;;;;;;;84.15;25.55;;;;;;;1.21;100.00;99123.91;5017539;28;20049;-63
2022/12/21 01:49:02;;;;;;;80.07;25.38;;;;;;;0.92;100.00;99112.34;5017193;28;20071;-66
2022/12/21 01:51:31;;;;;;;69.95;23.58;;;;;;;0.90;100.00;99117.25;5017623;28;20049;-73
2022/12/21 01:54:01;;;;;;;80.68;25.23;;;;;;;1.06;100.00;99093.41;5017289;28;20323;-64
2022/12/21 01:56:32;;;;;;;82.30;24.95;;;;;;;0.95;100.00;99094.75;5017187;28;20123;-62
2022/12/21 01:59:01;;;;;;;83.28;24.45;;;;;;;0.99;100.00;99079.53;5017297;28;20086;-64
2022/12/21 02:01:30;;;;;;;90.57;25.77;;;;;;;0.92;100.00;99077.25;5017050;28;20056;-69
2022/12/21 02:03:57;;;;;;;94.43;25.88;;;;;;;0.91;100.00;99055.97;5017205;28;20108;-65
2022/12/21 02:06:31;;;;;;;85.25;26.60;;;;;;;1.05;100.00;99045.16;5016864;28;20481;-69
2022/12/21 02:09:00;;;;;;;101.65;28.17;;;;;;;0.91;100.00;99055.97;5017382;28;20116;-65
2022/12/21 02:11:26;;;;;;;98.40;27.73;;;;;;;0.75;100.00;99042.00;5016642;28;20096;-64
2022/12/21 02:13:52;;;;;;;119.13;27.98;;;;;;;0.96;100.00;99028.06;5017179;28;20100;-74
2022/12/21 02:16:24;;;;;;;99.72;28.48;;;;;;;0.86;100.00;99024.47;5017033;28;20104;-64
2022/12/21 02:19:16;;;;;;;121.90;28.90;;;;;;;0.97;100.00;99005.34;5016704;28;20407;-72
2022/12/21 02:21:50;;;;;;;84.55;25.88;;;;;;;0.97;100.00;99010.75;5016285;28;20050;-66
2022/12/21 02:24:43;;;;;;;105.50;27.27;;;;;;;0.75;100.00;98998.84;5016975;28;20057;-66
2022/12/21 02:27:45;;;;;;;90.95;26.98;;;;;;;0.76;100.00;98978.84;5017197;28;20200;-69
2022/12/21 02:30:16;;;;;;;84.80;26.33;;;;;;;0.80;100.00;98977.16;4983933;28;20071;-70
2022/12/21 02:33:16;;;;;;;120.30;26.48;;;;;;;0.74;100.00;98967.56;5016450;28;20424;-71
2022/12/21 02:35:55;;;;;;;113.18;26.13;;;;;;;0.69;100.00;98968.47;5016874;28;20056;-69
2022/12/21 02:38:35;;;;;;;106.75;27.98;;;;;;;0.79;100.00;98962.03;5016555;28;20053;-71
2022/12/21 02:41:13;;;;;;;85.75;25.42;;;;;;;0.81;100.00;98957.16;5016912;28;20133;-72
2022/12/21 02:46:39;;;;;;;86.05;28.75;;;;;;;0.80;100.00;98960.97;5019912;28;20084;-66
2022/12/21 02:49:10;;;;;;;94.05;26.65;;;;;;;0.88;100.00;98954.03;5020357;28;20300;-69
2022/12/21 02:51:45;;;;;;;87.50;28.70;;;;;;;1.27;100.00;98950.66;5020062;28;20347;-64
2022/12/21 02:54:13;;;;;;;102.13;29.42;;;;;;;0.80;100.00;98969.06;5020324;28;20109;-69
2022/12/21 02:56:40;;;;;;;88.93;30.23;;;;;;;0.98;100.00;98961.88;5020242;28;20045;-70
2022/12/21 02:59:08;;;;;;;93.88;29.77;;;;;;;0.89;100.00;98956.41;5019551;28;20057;-66
2022/12/21 03:01:51;;;;;;;86.20;28.50;;;;;;;0.77;100.00;98953.47;5019684;28;20050;-69
2022/12/21 03:04:44;;;;;;;88.55;27.95;;;;;;;0.86;100.00;98959.72;5019795;28;20054;-63
2022/12/21 03:07:28;;;;;;;85.03;27.25;;;;;;;1.01;100.00;98952.38;5019844;28;20137;-69
2022/12/21 03:10:01;;;;;;;92.07;27.05;;;;;;;1.05;100.00;98969.56;5019627;28;20058;-70
2022/12/21 03:12:39;;;;;;;77.17;25.70;;;;;;;0.68;100.00;98966.88;5019864;28;20336;-65
2022/12/21 03:15:17;;;;;;;97.63;28.35;;;;;;;0.78;100.00;98963.16;5019307;28;20049;-67
2022/12/21 03:17:50;;;;;;;86.78;29.15;;;;;;;0.90;100.00;98959.91;5019397;28;20046;-67
2022/12/21 03:20:24;;;;;;;96.90;27.90;;;;;;;1.09;100.00;98944.31;5019731;28;20065;-65
2022/12/21 03:22:55;;;;;;;96.10;27.60;;;;;;;1.16;100.00;98943.88;5019201;28;20085;-67
2022/12/21 03:25:27;;;;;;;91.78;29.27;;;;;;;1.20;100.00;98950.28;5019949;28;20068;-67
2022/12/21 03:27:58;;;;;;;93.38;28.50;;;;;;;1.30;100.00;98965.41;5019377;28;20336;-73
2022/12/21 03:30:27;;;;;;;87.93;28.92;;;;;;;1.39;100.00;98979.78;5019917;28;20054;-61
2022/12/21 03:32:59;;;;;;;86.85;26.98;;;;;;;1.03;100.00;98991.44;5019367;28;20115;-65
2022/12/21 03:35:32;;;;;;;104.53;28.65;;;;;;;1.13;100.00;98991.22;5018992;28;20097;-64
2022/12/21 03:38:01;;;;;;;87.05;29.15;;;;;;;1.31;100.00;98997.53;5019313;28;20145;-70
2022/12/21 03:40:33;;;;;;;84.75;27.08;;;;;;;1.04;100.00;98998.47;5019214;28;20060;-75
2022/12/21 03:43:04;;;;;;;95.80;27.85;;;;;;;1.30;100.00;98993.25;5019316;28;20116;-72
2022/12/21 03:45:33;;;;;;;98.20;28.20;;;;;;;1.37;100.00;98982.00;5019091;28;20057;-70
2022/12/21 03:48:06;;;;;;;91.55;27.92;;;;;;;1.12;100.00;98988.81;5019513;28;20049;-64
2022/12/21 03:50:38;;;;;;;91.20;27.20;;;;;;;1.15;100.00;98982.81;5018656;28;20050;-67
2022/12/21 03:53:11;;;;;;;99.10;28.30;;;;;;;1.14;100.00;98981.22;5018760;28;20153;-70
2022/12/21 03:55:41;;;;;;;103.18;30.13;;;;;;;1.06;100.00;98980.03;5018522;28;20057;-67
2022/12/21 03:58:07;;;;;;;92.57;27.38;;;;;;;1.51;100.00;98980.03;5018941;28;20092;-70
2022/12/21 04:00:43;;;;;;;103.80;28.92;;;;;;;1.56;100.00;98998.00;5018847;28;20115;-69
2022/12/21 04:03:15;;;;;;;85.65;28.98;;;;;;;1.27;100.00;99022.78;5019054;28;20187;-67
2022/12/21 04:05:50;;;;;;;87.45;28.27;;;;;;;1.40;100.00;99024.63;5019146;28;20119;-73
2022/12/21 04:08:16;;;;;;;;;;;;;;;1.21;100.00;99027.50;5019114;28;20416;-66
2022/12/21 04:10:42;;;;;;;97.25;29.85;;;;;;;1.33;100.00;99025.06;5018916;28;20364;-75
2022/12/21 04:13:08;;;;;;;105.88;31.17;;;;;;;1.24;100.00;99029.59;5018617;28;20111;-73
2022/12/21 04:19:57;;;;;;;113.38;33.47;;;;;;;1.54;100.00;99033.44;5006110;28;20141;-74
2022/12/21 04:21:03;;;;;;;112.45;33.53;;;;;;;1.56;100.00;99041.22;5018170;28;20046;-67
2022/12/21 04:28:58;;;;;;;104.65;35.28;;;;;;;1.53;100.00;99060.75;5018949;28;20376;-75
2022/12/21 04:31:24;;;;;;;115.00;36.75;;;;;;;1.42;100.00;99073.72;5018611;28;20089;-66
2022/12/21 04:33:50;;;;;;;110.15;38.03;;;;;;;1.45;100.00;99066.91;5018440;28;20331;-72
2022/12/21 04:39:02;;;;;;;107.10;33.05;;;;;;;1.34;100.00;99048.25;5018245;28;20061;-74
2022/12/21 04:41:28;;;;;;;114.38;38.17;;;;;;;1.56;100.00;99046.63;5018304;28;20419;-65
2022/12/21 04:43:54;;;;;;;85.85;30.83;;;;;;;1.47;100.00;99062.00;5018189;28;20049;-72
2022/12/21 04:46:20;;;;;;;95.40;32.60;;;;;;;1.27;100.00;99055.19;5018068;28;20057;-69
2022/12/21 04:48:47;;;;;;;98.45;32.35;;;;;;;1.36;100.00;99043.31;5017994;28;20046;-69
2022/12/21 04:51:16;;;;;;;103.50;32.25;;;;;;;1.55;100.00;99028.84;5017748;28;20145;-69
2022/12/21 04:53:43;;;;;;;109.07;35.55;;;;;;;1.24;100.00;99043.09;5017584;28;20136;-64
2022/12/21 04:56:10;;;;;;;99.45;31.75;;;;;;;1.11;100.00;99036.63;5017718;28;20049;-73
2022/12/21 04:58:37;;;;;;;91.55;31.00;;;;;;;1.34;100.00;99023.13;5017825;28;20050;-66
2022/12/21 05:01:08;;;;;;;100.15;32.70;;;;;;;1.05;100.00;98999.25;5017924;28;20061;-65
2022/12/21 05:03:35;;;;;;;88.57;31.80;;;;;;;1.06;100.00;98973.84;5018115;28;20092;-62
2022/12/21 05:06:01;;;;;;;90.40;32.20;;;;;;;1.15;100.00;98972.00;5016745;28;20115;-69
2022/12/21 05:08:28;;;;;;;101.38;32.38;;;;;;;1.27;100.00;98966.84;5017952;28;20142;-72
2022/12/21 05:10:55;;;;;;;109.85;36.33;;;;;;;1.40;100.00;98963.28;5017749;28;20061;-72
2022/12/21 05:13:21;;;;;;;102.97;32.63;;;;;;;1.49;100.00;98979.53;5017895;28;20050;-63
2022/12/21 05:15:48;;;;;;;99.35;33.58;;;;;;;1.16;100.00;98997.88;5017290;28;20062;-64
2022/12/21 05:18:14;;;;;;;104.78;34.00;;;;;;;1.31;100.00;98978.63;5018051;28;20050;-69
2022/12/21 05:20:40;;;;;;;114.53;36.47;;;;;;;1.45;100.00;98973.16;5017179;28;20049;-65
2022/12/21 05:23:06;;;;;;;90.60;31.90;;;;;;;1.18;100.00;98982.19;5017718;28;20339;-73
2022/12/21 05:25:33;;;;;;;95.15;32.63;;;;;;;1.45;100.00;98977.75;5017320;28;20053;-66
2022/12/21 05:28:00;;;;;;;97.18;32.92;;;;;;;1.22;100.00;98980.47;5017140;28;20077;-72
2022/12/21 05:30:26;;;;;;;100.80;32.85;;;;;;;1.31;100.00;98973.22;5017577;28;20050;-73
2022/12/21 05:32:52;;;;;;;92.00;31.83;;;;;;;1.16;100.00;98971.69;5017124;28;20054;-65
2022/12/21 05:35:19;;;;;;;86.07;31.65;;;;;;;1.16;100.00;98968.97;5017350;28;20292;-72
2022/12/21 05:37:45;;;;;;;94.50;33.50;;;;;;;1.34;100.00;98964.50;5017254;28;20053;-64
2022/12/21 05:40:11;;;;;;;95.38;32.80;;;;;;;1.45;100.00;98967.75;5017187;28;20056;-72
2022/12/21 05:42:38;;;;;;;101.63;32.33;;;;;;;1.10;100.00;98974.81;5016994;28;20058;-73
2022/12/21 05:45:06;;;;;;;112.72;33.72;;;;;;;1.45;100.00;98956.94;5017362;28;20049;-65
2022/12/21 05:47:32;;;;;;;91.53;34.13;;;;;;;1.57;100.00;98972.59;5016821;28;20365;-66
2022/12/21 05:49:59;;;;;;;85.78;33.13;;;;;;;1.23;100.00;98989.38;5017341;28;20404;-64
2022/12/21 05:52:25;;;;;;;102.43;34.15;;;;;;;1.40;100.00;98984.91;5016799;28;20343;-74
2022/12/21 05:54:51;;;;;;;99.63;33.97;;;;;;;1.58;100.00;98987.69;5016813;28;20104;-65
2022/12/21 05:57:17;;;;;;;106.40;35.97;;;;;;;1.23;100.00;98992.84;5016808;28;20156;-75
2022/12/21 05:59:44;;;;;;;104.22;36.95;;;;;;;1.48;100.00;98998.75;5016943;28;20069;-67
2022/12/21 06:02:11;;;;;;;107.20;38.03;;;;;;;1.33;100.00;99008.03;5017169;28;20046;-72
2022/12/21 06:04:37;;;;;;;106.00;38.08;;;;;;;1.32;100.00;98998.34;5017162;28;20054;-70
2022/12/21 06:07:03;;;;;;;112.07;39.45;;;;;;;1.38;100.00;98991.69;5017322;28;20045;-69
2022/12/21 06:09:29;;;;;;;107.05;37.45;;;;;;;1.50;100.00;98991.94;5016892;28;20107;-69
2022/12/21 06:11:55;;;;;;;112.53;40.42;;;;;;;1.16;100.00;98995.97;5017013;28;20050;-69
2022/12/21 06:14:22;;;;;;;120.25;41.33;;;;;;;1.17;100.00;98986.00;5016594;28;20135;-73
2022/12/21 06:16:48;;;;;;;110.38;40.83;;;;;;;1.74;100.00;98986.19;5017070;28;20053;-66
2022/12/21 06:19:15;;;;;;;117.70;41.83;;;;;;;1.80;100.00;98998.47;5018351;28;20050;-73
2022/12/21 06:21:41;;;;;;;120.95;42.72;;;;;;;1.41;100.00;99037.00;5020190;28;20065;-67
2022/12/21 06:24:07;;;;;;;114.78;43.53;;;;;;;1.45;100.00;99038.00;5020676;28;20057;-75
2022/12/21 06:26:33;;;;;;;117.50;44.17;;;;;;;1.47;100.00;99024.97;5020363;28;20054;-65
2022/12/21 06:29:00;;;;;;;121.82;44.95;;;;;;;1.52;100.00;99030.25;5019958;28;20049;-74
2022/12/21 06:31:26;;;;;;;134.38;45.05;;;;;;;1.77;100.00;99034.22;5019754;28;20056;-66
2022/12/21 06:33:54;;;;;;;127.15;44.88;;;;;;;1.61;100.00;99058.13;5020228;28;20050;-72
2022/12/21 06:36:21;;;;;;;114.97;42.20;;;;;;;1.50;100.00;99075.69;5020212;28;20119;-65
2022/12/21 06:38:47;;;;;;;122.22;43.42;;;;;;;1.78;100.00;99062.03;5020230;28;20149;-67
2022/12/21 06:41:15;;;;;;;126.43;41.83;;;;;;;1.76;100.00;99075.84;5019821;28;20141;-73
2022/12/21 06:43:42;;;;;;;111.38;40.97;;;;;;;1.81;100.00;99089.25;5020170;28;20079;-69
2022/12/21 06:46:10;;;;;;;113.97;39.75;;;;;;;1.60;100.00;99107.88;5020011;28;20057;-73
2022/12/21 06:48:37;;;;;;;108.90;39.80;;;;;;;1.80;100.00;99109.28;5019937;28;20050;-68
2022/12/21 06:51:05;;;;;;;108.15;39.13;;;;;;;1.67;100.00;99120.13;5019508;28;20054;-71
2022/12/21 06:53:35;;;;;;;114.68;42.00;;;;;;;1.89;100.00;99112.03;5019220;28;20050;-69
2022/12/21 06:56:03;;;;;;;100.05;39.28;;;;;;;1.84;100.00;99112.97;5019710;28;20057;-74
2022/12/21 06:58:30;;;;;;;93.00;36.08;;;;;;;1.61;100.00;99128.38;5019639;28;20049;-66
2022/12/21 07:00:56;;;;;;;100.25;38.00;;;;;;;1.67;100.00;99107.44;5019856;28;20092;-66
2022/12/21 07:03:23;;;;;;;98.50;37.38;;;;;;;1.26;100.00;99113.78;5019496;28;20363;-70
2022/12/21 07:05:49;;;;;;;101.82;38.83;;;;;;;1.63;100.00;99090.22;5019297;28;20112;-71
2022/12/21 07:08:16;;;;;;;95.63;37.58;;;;;;;1.62;100.00;99084.03;5019253;28;20053;-67
2022/12/21 07:10:43;;;;;;;99.97;37.65;;;;;;;1.57;100.00;99086.88;5019669;28;20108;-74
2022/12/21 07:13:09;;;;;;;108.00;38.72;;;;;;;2.02;100.00;99075.22;5019079;28;20061;-64
2022/12/21 07:15:36;;;;;;;108.32;40.85;;;;;;;1.86;100.00;99089.09;5019454;28;20054;-75
2022/12/21 07:18:02;;;;;;;95.80;38.83;;;;;;;1.70;100.00;99104.13;5019218;28;20452;-69
2022/12/21 07:20:29;;;;;;;93.13;35.50;;;;;;;1.54;100.00;99097.50;5019023;28;20442;-69
2022/12/21 07:22:55;;;;;;;97.97;37.38;;;;;;;1.41;100.00;99099.13;5019181;28;20081;-69
2022/12/21 07:25:21;;;;;;;115.22;39.90;;;;;;;1.65;100.00;99079.91;5019249;28;20057;-69
2022/12/21 07:27:48;;;;;;;103.90;40.40;;;;;;;2.21;100.00;99083.13;5019555;28;20103;-69
2022/12/21 07:30:15;;;;;;;107.07;42.78;;;;;;;2.22;100.00;99119.84;5018648;28;20058;-64
2022/12/21 07:32:41;;;;;;;122.45;42.65;;;;;;;1.94;100.00;99140.88;5019141;28;20045;-73
2022/12/21 07:35:09;;;;;;;110.10;41.58;;;;;;;2.31;100.00;99137.72;5018985;28;20050;-70
2022/12/21 07:37:35;;;;;;;101.72;40.08;;;;;;;1.99;100.00;99173.97;5019385;28;20054;-66
2022/12/21 07:40:03;;;;;;;104.05;41.85;;;;;;;1.79;100.00;99175.25;5018772;28;20054;-73
2022/12/21 07:42:29;;;;;;;100.28;38.75;;;;;;;2.10;100.00;99152.91;5018972;28;20324;-65
2022/12/21 07:44:57;;;;;;;111.43;40.13;;;;;;;2.08;100.00;99174.81;5018722;28;20054;-72
2022/12/21 07:47:23;;;;;;;101.53;40.55;;;;;;;1.89;100.00;99199.34;5018723;28;20057;-65
2022/12/21 07:49:49;;;;;;;106.63;42.58;;;;;;;1.74;100.00;99180.00;5019026;28;20092;-73
2022/12/21 07:52:15;;;;;;;120.47;41.17;;;;;;;1.54;100.00;99155.03;5018713;28;20053;-64
2022/12/21 07:54:42;;;;;;;114.68;41.33;;;;;;;1.75;100.00;99135.63;5019173;28;20107;-73
2022/12/21 07:57:08;;;;;;;99.72;39.42;;;;;;;1.69;100.00;99137.66;5018633;28;20060;-66
2022/12/21 07:59:34;;;;;;;99.95;38.22;;;;;;;1.34;100.00;99133.88;5018897;28;20141;-74
2022/12/21 08:02:01;;;;;;;105.60;39.33;;;;;;;1.31;100.00;99102.06;5018348;28;20072;-66
2022/12/21 08:04:27;;;;;;;114.75;41.10;;;;;;;1.60;100.00;99090.84;5019110;28;20335;-75
2022/12/21 08:06:53;;;;;;;110.38;39.25;;;;;;;1.67;100.00;99093.09;5018569;28;20081;-66
2022/12/21 08:09:20;;;;;;;96.22;39.03;;;;;;;1.96;100.00;99079.94;5018946;28;20054;-71
2022/12/21 08:11:46;;;;;;;93.30;35.88;;;;;;;1.44;100.00;99098.53;5018091;28;20049;-66
2022/12/21 08:14:12;;;;;;;96.68;39.47;;;;;;;1.91;100.00;99069.28;5018778;28;20076;-74
2022/12/21 08:16:38;;;;;;;108.10;42.35;;;;;;;1.89;100.00;99085.00;5018532;28;20056;-64
2022/12/21 08:19:05;;;;;;;100.30;38.92;;;;;;;1.88;100.00;99097.72;5017987;28;20050;-75
2022/12/21 08:21:31;;;;;;;99.50;39.33;;;;;;;1.93;100.00;99118.41;5018348;28;20049;-67
2022/12/21 08:23:58;;;;;;;92.88;34.53;;;;;;;1.39;100.00;99126.44;5018376;28;20050;-72
2022/12/21 08:26:24;;;;;;;90.90;37.10;;;;;;;1.41;100.00;99099.94;5018228;28;20053;-67
2022/12/21 08:28:50;;;;;;;94.72;37.42;;;;;;;1.88;100.00;99078.00;5018096;28;20060;-70
2022/12/21 08:31:19;;;;;;;88.22;36.10;;;;;;;1.55;100.00;99080.97;5018362;28;20057;-69
2022/12/21 08:33:45;;;;;;;98.40;35.15;;;;;;;1.46;100.00;99084.69;5017943;28;20049;-65
2022/12/21 08:36:14;;;;;;;94.43;38.38;;;;;;;1.68;100.00;99067.72;5018364;28;20060;-65
2022/12/21 08:38:41;;;;;;;88.63;36.47;;;;;;;1.71;100.00;99086.81;5017777;28;20064;-65
2022/12/21 08:41:07;;;;;;;78.20;34.45;;;;;;;1.57;100.00;99086.88;5017195;28;20141;-74
2022/12/21 08:43:35;;;;;;;85.50;37.00;;;;;;;1.83;100.00;99059.19;5017692;28;20116;-66
2022/12/21 08:46:03;;;;;;;88.25;36.45;;;;;;;1.64;100.00;99068.31;5018296;28;20470;-70
2022/12/21 08:48:29;;;;;;;86.35;35.85;;;;;;;1.77;100.00;99060.47;5018165;28;20312;-70
2022/12/21 08:50:56;;;;;;;85.93;35.42;;;;;;;1.93;100.00;99067.03;5017845;28;20057;-63
2022/12/21 08:53:23;;;;;;;87.68;35.35;;;;;;;2.28;100.00;99081.53;5018234;28;20050;-65
2022/12/21 08:55:49;;;;;;;80.35;33.65;;;;;;;1.86;100.00;99101.84;5017686;28;20113;-73
2022/12/21 08:58:15;;;;;;;73.90;31.48;;;;;;;1.76;100.00;99102.09;5018132;28;20297;-70
2022/12/21 09:00:42;;;;;;;78.30;32.35;;;;;;;1.75;100.00;99108.59;5017686;28;20050;-63
2022/12/21 09:03:09;;;;;;;79.88;34.28;;;;;;;1.79;100.00;99106.88;5017924;28;20058;-65
2022/12/21 09:05:35;;;;;;;78.70;34.25;;;;;;;1.61;100.00;99124.88;5017542;28;20053;-73
2022/12/21 09:08:02;;;;;;;71.95;31.60;;;;;;;1.91;100.00;99109.81;5018026;28;20139;-72
2022/12/21 09:10:29;;;;;;;70.53;31.40;;;;;;;1.45;100.00;99127.13;5017569;28;20062;-66
2022/12/21 09:12:56;;;;;;;80.95;33.08;;;;;;;1.72;100.00;99096.50;5017439;28;20109;-74
2022/12/21 09:15:23;;;;;;;74.70;30.75;;;;;;;1.55;100.00;99109.88;5017885;28;20053;-72
2022/12/21 09:17:49;;;;;;;75.57;31.98;;;;;;;1.67;100.00;99096.63;5017605;28;20076;-73
2022/12/21 09:20:15;;;;;;;86.82;33.38;;;;;;;1.67;100.00;99093.09;5017739;28;20050;-69
2022/12/21 09:22:42;;;;;;;78.13;33.40;;;;;;;1.95;100.00;99093.78;5017487;28;20056;-69
2022/12/21 09:25:09;;;;;;;71.30;33.10;;;;;;;1.91;100.00;99098.22;5017794;28;20053;-72
2022/12/21 09:27:36;;;;;;;90.43;34.72;;;;;;;2.32;100.00;99090.63;5017297;28;20336;-70
2022/12/21 09:30:02;;;;;;;77.82;33.20;;;;;;;2.11;100.00;99114.72;5017522;28;20323;-75
2022/12/21 09:32:29;;;;;;;79.93;34.55;;;;;;;2.10;100.00;99129.34;5016878;28;20390;-73
2022/12/21 09:34:55;;;;;;;80.70;32.30;;;;;;;1.87;100.00;99141.28;5017234;28;20049;-66
2022/12/21 09:37:21;;;;;;;85.93;34.50;;;;;;;1.91;100.00;99131.47;5016738;28;20335;-68
2022/12/21 09:39:47;;;;;;;96.40;37.70;;;;;;;2.43;100.00;99130.94;5016754;28;20434;-69
2022/12/21 09:42:31;;;;;;;84.53;34.67;;;;;;;2.24;100.00;99155.53;5016703;28;20057;-70
2022/12/21 09:45:11;;;;;;;89.30;36.92;;;;;;;2.34;100.00;99166.88;5016917;28;20088;-65
2022/12/21 09:47:43;;;;;;;89.53;36.40;;;;;;;2.72;100.00;99182.66;5016720;28;20061;-64
2022/12/21 09:50:18;;;;;;;88.47;36.47;;;;;;;2.33;100.00;99200.47;5016348;28;20077;-73
2022/12/21 09:52:48;;;;;;;99.95;35.97;;;;;;;2.45;100.00;99204.50;5016762;28;20065;-76
2022/12/21 09:55:17;;;;;;;97.00;36.72;;;;;;;2.40;100.00;99201.91;5016614;28;20061;-67
2022/12/21 09:57:44;;;;;;;89.68;34.38;;;;;;;2.67;100.00;99201.75;5016843;28;20111;-69
2022/12/21 10:00:17;;;;;;;91.43;35.20;;;;;;;2.96;100.00;99222.88;5016615;28;20054;-66
2022/12/21 10:03:16;;;;;;;96.57;35.70;;;;;;;3.08;100.00;99252.09;5016368;28;20054;-72
2022/12/21 10:05:58;;;;;;;101.57;35.53;;;;;;;2.69;100.00;99272.59;5016849;28;20053;-73
2022/12/21 10:08:52;;;;;;;99.95;36.38;;;;;;;2.20;100.00;99262.72;5016412;28;20416;-71
2022/12/21 10:11:33;;;;;;;101.25;37.53;;;;;;;2.31;100.00;99239.75;5016519;28;20058;-72
2022/12/21 10:14:06;;;;;;;93.78;36.97;;;;;;;2.44;100.00;99225.34;5016705;28;20058;-72
2022/12/21 10:16:43;;;;;;;80.73;33.33;;;;;;;2.18;100.00;99227.88;5016727;28;20062;-72
2022/12/21 10:19:20;;;;;;;91.68;32.88;;;;;;;2.74;100.00;99210.22;5016444;28;20084;-70
2022/12/21 10:21:53;;;;;;;95.43;37.33;;;;;;;2.66;100.00;99229.13;5016407;28;20136;-66
2022/12/21 10:24:24;;;;;;;96.10;35.10;;;;;;;2.14;100.00;99226.91;5016722;28;20115;-69
2022/12/21 10:26:56;;;;;;;93.47;34.53;;;;;;;2.12;100.00;99210.97;5016133;28;20335;-63
2022/12/21 10:29:32;;;;;;;95.55;34.65;;;;;;;2.78;100.00;99203.06;5016069;28;20411;-65
2022/12/21 10:32:00;;;;;;;95.00;35.70;;;;;;;2.80;100.00;99221.72;5016068;28;20140;-66
2022/12/21 10:34:32;;;;;;;79.80;32.78;;;;;;;2.97;100.00;99238.03;5016289;28;20053;-67
2022/12/21 10:37:01;;;;;;;78.40;32.60;;;;;;;2.90;100.00;99245.81;5016447;28;20072;-69
2022/12/21 10:39:29;;;;;;;75.53;32.15;;;;;;;3.00;100.00;99242.81;5016077;28;20054;-72
2022/12/21 10:42:02;;;;;;;70.45;28.90;;;;;;;2.89;100.00;99254.22;5016192;28;20412;-73
2022/12/21 10:44:29;;;;;;;72.85;29.90;;;;;;;3.15;100.00;99254.34;5015885;28;20485;-64
2022/12/21 10:46:55;;;;;;;64.32;29.17;;;;;;;2.93;100.00;99252.50;5016496;28;20207;-73
2022/12/21 10:49:27;;;;;;;75.75;29.13;;;;;;;2.82;100.00;99243.84;5015861;28;20049;-62
2022/12/21 10:51:53;;;;;;;77.90;33.05;;;;;;;2.97;100.00;99235.31;5016252;28;20107;-73
2022/12/21 10:54:26;;;;;;;76.75;32.17;;;;;;;3.08;100.00;99226.91;5016201;28;20327;-63
2022/12/21 10:56:53;;;;;;;71.13;30.48;;;;;;;3.18;100.00;99226.63;5016014;28;20146;-71
2022/12/21 10:59:22;;;;;;;65.15;28.30;;;;;;;3.43;100.00;99223.19;5015863;28;20448;-63
2022/12/21 11:01:49;;;;;;;77.60;31.40;;;;;;;3.23;100.00;99210.22;5015587;28;20137;-61
2022/12/21 11:04:16;;;;;;;86.70;33.00;;;;;;;3.07;100.00;99201.75;5016575;28;20073;-63
2022/12/21 11:07:00;;;;;;;67.78;29.83;;;;;;;2.81;100.00;99207.84;5019136;28;20057;-69
2022/12/21 11:09:29;;;;;;;69.38;28.25;;;;;;;2.79;100.00;99201.94;5017740;28;20054;-71
2022/12/21 11:11:56;;;;;;;78.93;29.55;;;;;;;2.45;100.00;99189.06;5018941;28;20057;-67
2022/12/21 11:14:23;;;;;;;67.05;28.45;;;;;;;2.82;100.00;99190.50;5019382;28;20169;-60
2022/12/21 11:16:49;;;;;;;69.20;30.20;;;;;;;2.64;100.00;99186.13;5019012;28;20100;-72
2022/12/21 11:19:18;;;;;;;63.08;27.38;;;;;;;2.56;100.00;99195.78;5018882;28;20220;-69
2022/12/21 11:21:47;;;;;;;58.30;26.30;;;;;;;2.65;100.00;99184.22;5019147;28;20144;-71
2022/12/21 11:24:18;;;;;;;58.60;25.50;;;;;;;2.50;100.00;99180.81;5019232;28;20050;-68
2022/12/21 11:26:46;;;;;;;55.53;26.77;;;;;;;2.54;100.00;99170.16;5019307;28;20148;-70
2022/12/21 11:29:18;;;;;;;58.53;26.25;;;;;;;2.64;100.00;99171.81;5018723;28;20046;-69
2022/12/21 11:31:45;;;;;;;55.53;23.85;;;;;;;2.82;100.00;99170.75;5019059;28;20053;-69
2022/12/21 11:34:26;;;;;;;52.75;22.85;;;;;;;2.64;100.00;99169.09;5018685;28;20050;-71
2022/12/21 11:36:56;;;;;;;54.10;23.08;;;;;;;2.51;100.00;99163.47;5018530;28;20454;-64